Terminal Aerodrome Forecast
Issued by NWS New Orleans/Baton Rouge, LA

Home | Current Version | Previous Version | Text Only | Print | Product List | Glossary On
Versions: 1 2 3 4 5 6 7 8 9 10 11 12 13 14
000
FTUS44 KLIX 010500
TAFBTR
TAF
KBTR 010521Z 0106/0206 11003KT P6SM SCT100
     FM011500 15007KT P6SM SCT030 BKN080 PROB30 0115/0121 3SM TSRA
      BKN030CB=

USA.gov is the U.S. government's official web portal to all federal, state and local government web resources and services.